This is the latest recevied weather packets stored in our database for station/object IV3CVE-H1. If no packets are shown the sender has not sent any weather packets the latest 10 day(s).
| Time | Temp. | Humidity | Pressure | Rain* | Wind** | Luminosity | Snow |
|---|---|---|---|---|---|---|---|
| 1777550736 | 18.89° C | 38% | 1022.1 hPa | 0 mm | - | - | - |
| 1777548318 | 18.89° C | 39% | 1022.5 hPa | 0 mm | - | - | - |
| 1777547117 | 18.33° C | 40% | 1022.6 hPa | 0 mm | - | - | - |
| 1777545316 | 17.78° C | 41% | 1022.8 hPa | 0 mm | - | - | - |
| 1777541136 | 16.11° C | 42% | 1023.2 hPa | 0 mm | - | - | - |
| 1777539936 | 16.11° C | 40% | 1023.3 hPa | 0 mm | - | - | - |
| 1777538718 | 15.56° C | 43% | 1023.3 hPa | 0 mm | - | - | - |
| 1777526717 | 11.11° C | 60% | 1021.9 hPa | 0 mm | - | - | - |
| 1777524917 | 9.44° C | 64% | 1021.5 hPa | 0 mm | - | - | - |
| 1777523116 | 9.44° C | 60% | 1021.4 hPa | 0 mm | - | - | - |
| 1777521318 | 10.56° C | 56% | 1021.1 hPa | 0 mm | - | - | - |
| 1777520717 | 10.56° C | 56% | 1021 hPa | 0 mm | - | - | - |
| 1777518317 | 10.56° C | 58% | 1020.8 hPa | 0 mm | - | - | - |
| 1777514117 | 11.67° C | 58% | 1020.6 hPa | 0 mm | - | - | - |
| 1777512916 | 11.67° C | 57% | 1020.6 hPa | 0 mm | - | - | - |
| 1777511118 | 11.67° C | 56% | 1020.4 hPa | 0 mm | - | - | - |
| 1777508116 | 11.67° C | 60% | 1020.1 hPa | 0 mm | - | - | - |
| 1777505118 | 11.11° C | 66% | 1019.9 hPa | 0 mm | - | - | - |
| 1777497316 | 13.89° C | 69% | 1018.5 hPa | 0 mm | - | - | - |
| 1777496136 | 13.89° C | 69% | 1018.2 hPa | 0 mm | - | - | - |
| 1777492517 | 13.89° C | 71% | 1017.8 hPa | 0 mm | - | - | - |
| 1777484716 | 15° C | 69% | 1016.1 hPa | 0 mm | - | - | - |
| 1777478717 | 15° C | 69% | 1015.8 hPa | 0 mm | - | - | - |
| 1777478117 | 15° C | 68% | 1015.8 hPa | 0 mm | - | - | - |
| 1777476917 | 15° C | 70% | 1016 hPa | 0 mm | - | - | - |
* Rain latest hour (hover to see other rain measurements)
** Current wind speed in m/s (hover to see current wind gust speed)